createdAt,value
2018-03-24T00:00:11.031Z,100463.66
2018-03-24T00:02:38.532Z,100461.61
2018-03-24T00:05:05.999Z,100463.06
2018-03-24T00:07:33.482Z,100460.91
2018-03-24T00:10:00.934Z,100461.96
2018-03-24T00:12:28.436Z,100461.19
2018-03-24T00:14:55.910Z,100457.39
2018-03-24T00:17:23.390Z,100450.27
2018-03-24T00:19:50.850Z,100455.27
2018-03-24T00:22:18.318Z,100453.55
2018-03-24T00:24:45.777Z,100447.81
2018-03-24T00:27:13.273Z,100449.00
2018-03-24T00:29:40.775Z,100448.50
2018-03-24T00:32:08.325Z,100452.56
2018-03-24T00:34:35.956Z,100453.91
2018-03-24T00:37:04.341Z,100448.34
2018-03-24T00:39:31.817Z,100447.63
2018-03-24T00:41:59.274Z,100452.92
2018-03-24T00:44:26.753Z,100450.77
2018-03-24T00:46:54.292Z,100452.37
2018-03-24T00:49:21.761Z,100451.56
2018-03-24T00:51:49.214Z,100461.56
2018-03-24T00:54:16.686Z,100453.91
2018-03-24T00:56:45.116Z,100445.66
2018-03-24T00:59:12.580Z,100453.48
2018-03-24T01:01:40.032Z,100451.14
2018-03-24T01:04:07.509Z,100448.11
2018-03-24T01:06:34.965Z,100453.52
2018-03-24T01:09:02.438Z,100451.79
2018-03-24T01:11:29.888Z,100447.42
2018-03-24T01:13:57.370Z,100447.53
2018-03-24T01:16:24.904Z,100451.31
2018-03-24T01:18:52.365Z,100447.75
2018-03-24T01:21:20.808Z,100443.15
2018-03-24T01:23:48.268Z,100442.20
2018-03-24T01:26:15.720Z,100446.84
2018-03-24T01:28:43.187Z,100444.88
2018-03-24T01:31:10.781Z,100445.02
2018-03-24T01:33:38.244Z,100447.56
2018-03-24T01:36:06.678Z,100444.30
2018-03-24T01:38:34.148Z,100444.37
2018-03-24T01:41:01.608Z,100444.95
2018-03-24T01:43:29.088Z,100442.59
2018-03-24T01:45:56.537Z,100440.10
2018-03-24T01:48:24.014Z,100441.63
2018-03-24T01:50:52.369Z,100435.03
2018-03-24T01:53:19.834Z,100438.25
2018-03-24T01:55:47.280Z,100436.70
2018-03-24T01:58:14.760Z,100437.22
2018-03-24T02:00:43.185Z,100432.94
2018-03-24T02:03:10.677Z,100433.79
2018-03-24T02:05:38.129Z,100436.80
2018-03-24T02:08:05.596Z,100432.14
2018-03-24T02:10:33.062Z,100432.49
2018-03-24T02:13:00.536Z,100425.77
2018-03-24T02:15:27.993Z,100428.22
2018-03-24T02:17:55.517Z,100423.78
2018-03-24T02:20:24.110Z,100427.05
2018-03-24T02:22:51.553Z,100428.41
2018-03-24T02:25:19.420Z,100427.48
2018-03-24T02:27:47.893Z,100426.34
2018-03-24T02:30:15.348Z,100421.42
2018-03-24T02:32:42.832Z,100415.23
2018-03-24T02:35:10.286Z,100415.09
2018-03-24T02:37:38.745Z,100411.05
2018-03-24T02:40:06.200Z,100410.92
2018-03-24T02:42:33.682Z,100409.36
2018-03-24T02:45:01.142Z,100408.70
2018-03-24T02:47:28.627Z,100406.47
2018-03-24T02:49:56.144Z,100409.58
2018-03-24T02:52:23.618Z,100409.45
2018-03-24T02:54:51.062Z,100415.47
2018-03-24T02:57:18.612Z,100414.38
2018-03-24T02:59:46.073Z,100411.36
2018-03-24T03:02:13.541Z,100414.96
2018-03-24T03:04:40.992Z,100410.98
2018-03-24T03:07:08.462Z,100411.91
2018-03-24T03:09:35.907Z,100408.41
2018-03-24T03:12:03.361Z,100412.27
2018-03-24T03:14:30.833Z,100415.80
2018-03-24T03:16:58.286Z,100412.89
2018-03-24T03:19:25.752Z,100418.97
2018-03-24T03:21:53.264Z,100416.03
2018-03-24T03:24:20.722Z,100413.40
2018-03-24T03:26:48.175Z,100420.77
2018-03-24T03:29:15.640Z,100418.53
2018-03-24T03:34:42.082Z,100425.09
2018-03-24T03:37:11.491Z,100422.58
2018-03-24T03:39:38.996Z,100428.25
2018-03-24T03:42:06.426Z,100419.94
2018-03-24T03:44:34.870Z,100427.43
2018-03-24T03:47:03.253Z,100420.33
2018-03-24T03:49:30.726Z,100423.59
2018-03-24T03:51:58.199Z,100423.20
2018-03-24T03:54:25.654Z,100431.41
2018-03-24T03:56:53.125Z,100428.81
2018-03-24T03:59:20.591Z,100426.47
2018-03-24T04:01:48.133Z,100430.64
2018-03-24T04:04:15.589Z,100429.01
2018-03-24T04:06:44.057Z,100429.95
2018-03-24T04:09:11.502Z,100431.43
2018-03-24T04:11:38.954Z,100425.74
2018-03-24T04:14:08.383Z,100426.91
2018-03-24T04:16:35.945Z,100426.87
2018-03-24T04:19:03.405Z,100428.28
2018-03-24T04:21:30.865Z,100427.69
2018-03-24T04:23:58.324Z,100435.08
2018-03-24T04:26:25.773Z,100433.48
2018-03-24T04:28:53.249Z,100434.73
2018-03-24T04:31:22.735Z,100430.80
2018-03-24T04:33:50.201Z,100436.55
2018-03-24T04:36:18.600Z,100432.41
2018-03-24T04:38:48.034Z,100428.78
2018-03-24T04:41:15.490Z,100428.01
2018-03-24T04:43:44.902Z,100429.41
2018-03-24T04:46:12.377Z,100423.96
2018-03-24T04:48:39.850Z,100422.58
2018-03-24T04:51:07.309Z,100426.45
2018-03-24T04:53:34.786Z,100427.92
2018-03-24T04:56:02.242Z,100426.27
2018-03-24T04:58:29.718Z,100432.14
2018-03-24T05:00:57.157Z,100430.34
2018-03-24T05:03:24.626Z,100433.61
2018-03-24T05:05:52.082Z,100438.23
2018-03-24T05:08:19.594Z,100438.55
2018-03-24T05:10:47.049Z,100443.27
2018-03-24T05:13:14.525Z,100443.13
2018-03-24T05:15:42.065Z,100447.98
2018-03-24T05:18:09.531Z,100441.58
2018-03-24T05:20:36.989Z,100443.71
2018-03-24T05:23:05.458Z,100448.13
2018-03-24T05:25:32.917Z,100451.34
2018-03-24T05:28:00.372Z,100446.70
2018-03-24T05:30:27.829Z,100447.00
2018-03-24T05:32:55.302Z,100448.78
2018-03-24T05:35:22.758Z,100453.23
2018-03-24T05:37:51.206Z,100448.61
2018-03-24T05:40:18.681Z,100455.65
2018-03-24T05:42:48.077Z,100454.41
2018-03-24T05:45:15.546Z,100457.45
2018-03-24T05:47:43.014Z,100456.97
2018-03-24T05:50:10.471Z,100453.39
2018-03-24T05:52:37.937Z,100452.41
2018-03-24T05:55:05.389Z,100449.70
2018-03-24T05:57:32.862Z,100454.11
2018-03-24T06:00:00.320Z,100460.05
2018-03-24T06:02:27.800Z,100466.12
2018-03-24T06:04:56.191Z,100461.30
2018-03-24T06:07:24.579Z,100468.36
2018-03-24T06:09:52.038Z,100462.43
2018-03-24T06:12:19.497Z,100471.45
2018-03-24T06:14:46.956Z,100473.03
2018-03-24T06:17:14.420Z,100478.70
2018-03-24T06:19:41.868Z,100480.25
2018-03-24T06:22:09.356Z,100482.54
2018-03-24T06:24:36.797Z,100487.25
2018-03-24T06:27:04.262Z,100485.75
2018-03-24T06:29:31.721Z,100489.91
2018-03-24T06:32:12.522Z,100494.55
2018-03-24T06:34:39.970Z,100498.22
2018-03-24T06:37:13.126Z,100497.77
2018-03-24T06:39:40.573Z,100494.61
2018-03-24T06:42:08.038Z,100494.30
2018-03-24T06:44:35.486Z,100494.86
2018-03-24T06:47:03.056Z,100497.64
2018-03-24T06:49:30.609Z,100499.70
2018-03-24T06:51:58.270Z,100508.09
2018-03-24T06:54:25.839Z,100505.30
2018-03-24T06:56:53.399Z,100508.51
2018-03-24T06:59:20.849Z,100505.58
2018-03-24T07:01:48.414Z,100510.42
2018-03-24T07:04:15.866Z,100511.48
2018-03-24T07:06:43.346Z,100513.98
2018-03-24T07:09:10.870Z,100507.86
2018-03-24T07:11:38.328Z,100504.31
2018-03-24T07:14:05.792Z,100513.16
2018-03-24T07:16:33.262Z,100513.94
2018-03-24T07:19:00.725Z,100515.13
2018-03-24T07:21:28.269Z,100512.70
2018-03-24T07:23:55.729Z,100518.09
2018-03-24T07:26:24.194Z,100517.68
2018-03-24T07:28:52.661Z,100513.66
2018-03-24T07:31:22.246Z,100516.27
2018-03-24T07:33:49.886Z,100514.95
2018-03-24T07:36:18.313Z,100515.27
2018-03-24T07:38:50.056Z,100522.77
2018-03-24T07:41:18.459Z,100516.86
2018-03-24T07:43:45.906Z,100519.17
2018-03-24T07:46:13.381Z,100522.65
2018-03-24T07:48:41.868Z,100522.63
2018-03-24T07:51:09.341Z,100523.11
2018-03-24T07:53:37.775Z,100521.05
2018-03-24T07:56:05.255Z,100522.23
2018-03-24T07:58:32.710Z,100524.13
2018-03-24T08:01:00.188Z,100530.98
2018-03-24T08:03:27.649Z,100521.99
2018-03-24T08:05:56.126Z,100529.06
2018-03-24T08:08:23.601Z,100531.27
2018-03-24T08:10:51.136Z,100522.61
2018-03-24T08:13:18.684Z,100529.28
2018-03-24T08:15:46.159Z,100528.30
2018-03-24T08:18:13.702Z,100535.08
2018-03-24T08:20:41.197Z,100536.85
2018-03-24T08:23:09.604Z,100540.30
2018-03-24T08:25:38.015Z,100541.62
2018-03-24T08:28:05.490Z,100540.97
2018-03-24T08:30:33.934Z,100539.75
2018-03-24T08:33:01.401Z,100542.27
2018-03-24T08:35:28.925Z,100540.56
2018-03-24T08:37:56.393Z,100544.67
2018-03-24T08:40:23.871Z,100542.47
2018-03-24T08:42:51.329Z,100543.14
2018-03-24T08:45:19.713Z,100544.23
2018-03-24T08:47:47.164Z,100544.97
2018-03-24T08:50:14.629Z,100544.39
2018-03-24T08:52:42.097Z,100546.91
2018-03-24T08:55:09.554Z,100554.59
2018-03-24T08:57:37.056Z,100554.95
2018-03-24T09:00:04.525Z,100562.85
2018-03-24T09:02:31.981Z,100556.43
2018-03-24T09:04:59.461Z,100559.75
2018-03-24T09:07:32.024Z,100556.95
2018-03-24T09:09:59.621Z,100557.84
2018-03-24T09:12:27.081Z,100556.63
2018-03-24T09:14:54.558Z,100558.73
2018-03-24T09:17:22.082Z,100562.52
2018-03-24T09:19:49.565Z,100559.52
2018-03-24T09:22:17.123Z,100566.88
2018-03-24T09:24:44.563Z,100568.70
2018-03-24T09:27:12.066Z,100565.86
2018-03-24T09:29:39.529Z,100565.97
2018-03-24T09:32:07.050Z,100568.41
2018-03-24T09:34:34.509Z,100568.85
2018-03-24T09:37:01.993Z,100575.49
2018-03-24T09:39:29.495Z,100568.53
2018-03-24T09:41:56.961Z,100568.65
2018-03-24T09:44:24.440Z,100560.81
2018-03-24T09:46:51.936Z,100566.92
2018-03-24T09:49:19.394Z,100563.13
2018-03-24T09:51:46.865Z,100556.97
2018-03-24T09:54:15.329Z,100560.22
2018-03-24T09:56:42.797Z,100564.11
2018-03-24T09:59:10.254Z,100564.58
2018-03-24T10:01:37.757Z,100563.19
2018-03-24T10:04:05.214Z,100562.26
2018-03-24T10:06:32.686Z,100565.19
2018-03-24T10:09:00.201Z,100572.33
2018-03-24T10:11:27.717Z,100567.45
2018-03-24T10:13:55.181Z,100567.55
2018-03-24T10:16:22.665Z,100570.69
2018-03-24T10:18:50.113Z,100568.27
2018-03-24T10:24:18.220Z,100566.02
2018-03-24T10:26:46.690Z,100564.05
2018-03-24T10:29:14.162Z,100566.94
2018-03-24T10:31:41.614Z,100572.19
2018-03-24T10:34:10.113Z,100568.16
2018-03-24T10:36:37.662Z,100569.75
2018-03-24T10:39:05.135Z,100572.91
2018-03-24T10:41:32.620Z,100572.23
2018-03-24T10:44:00.098Z,100572.12
2018-03-24T10:46:29.508Z,100571.34
2018-03-24T10:48:56.985Z,100570.31
2018-03-24T10:51:24.441Z,100561.85
2018-03-24T10:53:51.889Z,100564.12
2018-03-24T10:56:20.277Z,100566.05
2018-03-24T10:58:48.748Z,100567.22
2018-03-24T11:01:21.662Z,100571.48
2018-03-24T11:03:49.130Z,100569.16
2018-03-24T11:06:16.598Z,100571.01
2018-03-24T11:08:45.026Z,100565.19
2018-03-24T11:11:12.502Z,100559.07
2018-03-24T11:13:40.006Z,100567.39
2018-03-24T11:16:07.488Z,100554.52
2018-03-24T11:18:34.944Z,100566.18
2018-03-24T11:21:03.338Z,100569.09
2018-03-24T11:23:30.799Z,100565.92
2018-03-24T11:25:58.273Z,100565.41
2018-03-24T11:28:25.743Z,100563.77
2018-03-24T11:30:53.248Z,100566.68
2018-03-24T11:33:21.650Z,100572.28
2018-03-24T11:35:53.401Z,100575.02
2018-03-24T11:38:20.897Z,100568.55
2018-03-24T11:40:49.349Z,100565.87
2018-03-24T11:43:16.914Z,100564.16
2018-03-24T11:45:44.414Z,100564.67
2018-03-24T11:48:11.878Z,100570.33
2018-03-24T11:50:39.359Z,100572.16
2018-03-24T11:53:07.739Z,100573.80
2018-03-24T11:55:35.222Z,100570.73
2018-03-24T11:58:02.685Z,100575.67
2018-03-24T12:00:30.156Z,100567.20
2018-03-24T12:02:57.617Z,100572.05
2018-03-24T12:05:25.104Z,100571.97
2018-03-24T12:07:52.601Z,100568.91
2018-03-24T12:10:20.077Z,100565.22
2018-03-24T12:12:47.539Z,100569.67
2018-03-24T12:15:18.470Z,100570.27
2018-03-24T12:17:45.942Z,100563.33
2018-03-24T12:20:15.419Z,100573.81
2018-03-24T12:22:42.882Z,100571.25
2018-03-24T12:25:10.352Z,100574.95
2018-03-24T12:27:38.780Z,100573.79
2018-03-24T12:30:06.261Z,100571.28
2018-03-24T12:32:33.737Z,100572.02
2018-03-24T12:35:01.289Z,100568.31
2018-03-24T12:37:28.845Z,100568.40
2018-03-24T12:39:56.328Z,100565.78
2018-03-24T12:42:24.758Z,100562.91
2018-03-24T12:44:52.236Z,100563.86
2018-03-24T12:47:19.712Z,100561.02
2018-03-24T12:49:47.300Z,100561.27
2018-03-24T12:52:14.756Z,100564.06
2018-03-24T12:54:42.272Z,100567.23
2018-03-24T12:57:09.733Z,100566.42
2018-03-24T12:59:37.201Z,100561.27
2018-03-24T13:02:04.659Z,100566.82
2018-03-24T13:04:32.209Z,100567.33
2018-03-24T13:06:59.669Z,100561.03
2018-03-24T13:09:27.165Z,100565.16
2018-03-24T13:11:54.633Z,100563.43
2018-03-24T13:14:22.139Z,100570.22
2018-03-24T13:16:49.601Z,100571.66
2018-03-24T13:19:17.091Z,100568.27
2018-03-24T13:21:44.580Z,100569.17
2018-03-24T13:24:12.075Z,100566.39
2018-03-24T13:26:39.541Z,100568.86
2018-03-24T13:29:07.013Z,100564.36
2018-03-24T13:31:34.465Z,100568.05
2018-03-24T13:34:01.950Z,100572.50
2018-03-24T13:36:29.416Z,100569.84
2018-03-24T13:38:56.890Z,100569.17
2018-03-24T13:41:24.500Z,100576.44
2018-03-24T13:43:51.938Z,100574.56
2018-03-24T13:46:19.441Z,100571.23
2018-03-24T13:48:46.965Z,100576.23
2018-03-24T13:51:14.455Z,100577.73
2018-03-24T13:53:42.871Z,100580.45
2018-03-24T13:56:10.334Z,100582.82
2018-03-24T13:58:37.802Z,100585.30
2018-03-24T14:01:05.279Z,100576.81
2018-03-24T14:03:33.734Z,100579.16
2018-03-24T14:06:02.219Z,100584.16
2018-03-24T14:08:29.810Z,100584.31
2018-03-24T14:10:57.265Z,100578.89
2018-03-24T14:13:24.785Z,100584.36
2018-03-24T14:15:52.256Z,100587.30
2018-03-24T14:18:19.725Z,100582.64
2018-03-24T14:20:47.263Z,100583.56
2018-03-24T14:23:14.746Z,100584.67
2018-03-24T14:25:44.114Z,100574.19
2018-03-24T14:28:11.679Z,100579.22
2018-03-24T14:30:39.159Z,100575.18
2018-03-24T14:33:06.643Z,100582.91
2018-03-24T14:35:35.013Z,100581.23
2018-03-24T14:38:02.490Z,100581.50
2018-03-24T14:40:30.881Z,100580.70
2018-03-24T14:42:58.359Z,100584.67
2018-03-24T14:45:25.846Z,100579.91
2018-03-24T14:47:53.330Z,100581.02
2018-03-24T14:50:20.788Z,100588.61
2018-03-24T14:52:48.265Z,100582.19
2018-03-24T14:55:15.722Z,100579.60
2018-03-24T14:57:43.191Z,100582.33
2018-03-24T15:00:10.678Z,100582.40
2018-03-24T15:02:38.158Z,100582.53
2018-03-24T15:05:07.643Z,100585.53
2018-03-24T15:07:35.123Z,100580.05
2018-03-24T15:10:06.036Z,100585.33
2018-03-24T15:12:33.581Z,100585.03
2018-03-24T15:15:01.016Z,100584.89
2018-03-24T15:17:28.614Z,100584.55
2018-03-24T15:19:56.082Z,100580.81
2018-03-24T15:22:23.567Z,100586.05
2018-03-24T15:24:51.978Z,100586.25
2018-03-24T15:27:19.478Z,100585.50
2018-03-24T15:29:58.921Z,100583.45
2018-03-24T15:32:39.201Z,100583.80
2018-03-24T15:35:18.487Z,100585.33
2018-03-24T15:37:46.929Z,100584.40
2018-03-24T15:40:15.515Z,100585.22
2018-03-24T15:42:45.060Z,100585.91
2018-03-24T15:45:12.605Z,100584.05
2018-03-24T15:47:40.069Z,100586.33
2018-03-24T15:50:08.603Z,100589.87
2018-03-24T15:52:36.057Z,100585.67
2018-03-24T15:55:03.808Z,100586.02
2018-03-24T15:57:31.285Z,100588.64
2018-03-24T15:59:58.733Z,100592.48
2018-03-24T16:02:26.226Z,100586.99
2018-03-24T16:04:53.683Z,100592.92
2018-03-24T16:07:21.154Z,100591.29
2018-03-24T16:09:48.632Z,100590.72
2018-03-24T16:12:16.122Z,100601.38
2018-03-24T16:14:43.601Z,100595.59
2018-03-24T16:17:11.057Z,100593.26
2018-03-24T16:19:38.513Z,100597.55
2018-03-24T16:22:07.931Z,100597.09
2018-03-24T16:24:36.374Z,100596.05
2018-03-24T16:27:03.839Z,100601.64
2018-03-24T16:29:31.294Z,100598.42
2018-03-24T16:31:58.892Z,100601.52
2018-03-24T16:34:26.353Z,100603.43
2018-03-24T16:36:53.897Z,100607.15
2018-03-24T16:39:21.396Z,100606.94
2018-03-24T16:41:48.837Z,100607.84
2018-03-24T16:44:16.418Z,100609.49
2018-03-24T16:46:43.921Z,100604.21
2018-03-24T16:49:11.389Z,100610.00
2018-03-24T16:51:38.869Z,100603.53
2018-03-24T16:54:06.355Z,100598.64
2018-03-24T16:56:33.842Z,100597.80
2018-03-24T16:59:02.200Z,100601.87
2018-03-24T17:01:29.669Z,100602.50
2018-03-24T18:25:54.204Z,100645.23
2018-03-24T18:28:21.773Z,100649.05
2018-03-24T18:30:49.405Z,100649.09
2018-03-24T18:33:16.876Z,100644.81
2018-03-24T18:35:45.331Z,100645.34
2018-03-24T18:38:14.087Z,100646.23
2018-03-24T18:40:41.544Z,100649.05
2018-03-24T18:43:10.965Z,100650.92
2018-03-24T18:45:38.421Z,100655.97
2018-03-24T18:48:06.847Z,100652.36
2018-03-24T18:50:34.301Z,100664.36
2018-03-24T18:53:01.761Z,100654.20
2018-03-24T18:55:29.241Z,100655.01
2018-03-24T18:57:56.822Z,100664.16
2018-03-24T19:00:24.271Z,100658.25
2018-03-24T19:02:51.748Z,100664.94
2018-03-24T19:05:19.232Z,100661.61
2018-03-24T19:07:46.756Z,100667.26
2018-03-24T19:10:14.218Z,100675.17
2018-03-24T19:12:41.785Z,100673.97
2018-03-24T19:15:09.318Z,100676.05
2018-03-24T19:17:36.848Z,100675.57
2018-03-24T19:20:04.337Z,100676.33
2018-03-24T19:22:31.873Z,100677.09
2018-03-24T19:24:59.322Z,100679.78
2018-03-24T19:27:27.717Z,100682.84
2018-03-24T19:29:56.198Z,100680.73
2018-03-24T19:32:25.687Z,100681.50
2018-03-24T19:34:53.153Z,100677.22
2018-03-24T19:37:20.637Z,100681.47
2018-03-24T19:39:48.097Z,100686.27
2018-03-24T19:42:15.565Z,100686.94
2018-03-24T19:44:43.057Z,100684.72
2018-03-24T19:47:10.535Z,100687.11
2018-03-24T19:49:38.964Z,100684.83
2018-03-24T19:52:07.431Z,100684.50
2018-03-24T19:54:34.982Z,100689.05
2018-03-24T19:57:02.458Z,100687.74
2018-03-24T19:59:29.991Z,100686.56
2018-03-24T20:01:57.510Z,100690.77
2018-03-24T20:04:24.992Z,100682.62
2018-03-24T20:06:52.508Z,100686.09
2018-03-24T20:09:20.027Z,100685.75
2018-03-24T20:11:47.517Z,100688.28
2018-03-24T20:14:20.702Z,100687.87
2018-03-24T20:16:48.201Z,100692.41
2018-03-24T20:19:18.987Z,100692.70
2018-03-24T20:21:46.526Z,100691.33
2018-03-24T20:24:13.947Z,100686.61
2018-03-24T20:26:41.418Z,100690.34
2018-03-24T20:29:08.915Z,100692.42
2018-03-24T20:31:36.481Z,100694.13
2018-03-24T20:34:04.616Z,100695.14
2018-03-24T20:36:33.060Z,100691.16
2018-03-24T20:39:00.512Z,100696.19
2018-03-24T20:41:28.939Z,100701.64
2018-03-24T20:43:56.416Z,100696.17
2018-03-24T20:46:23.971Z,100700.30
2018-03-24T20:48:51.457Z,100699.36
2018-03-24T20:51:20.957Z,100700.13
2018-03-24T20:53:48.434Z,100700.22
2018-03-24T20:56:15.938Z,100699.87
2018-03-24T20:58:43.397Z,100696.94
2018-03-24T21:01:10.909Z,100704.72
2018-03-24T21:03:38.463Z,100703.12
2018-03-24T21:06:05.938Z,100710.27
2018-03-24T21:08:33.482Z,100713.41
2018-03-24T21:11:00.961Z,100710.56
2018-03-24T21:13:30.462Z,100707.78
2018-03-24T21:15:57.924Z,100710.20
2018-03-24T21:18:25.456Z,100706.81
2018-03-24T21:20:53.008Z,100712.61
2018-03-24T21:23:20.458Z,100714.47
2018-03-24T21:25:48.953Z,100711.51
2018-03-24T21:28:16.414Z,100712.69
2018-03-24T21:30:43.891Z,100709.66
2018-03-24T21:33:11.348Z,100708.89
2018-03-24T21:35:39.794Z,100713.80
2018-03-24T21:38:07.249Z,100707.28
2018-03-24T21:40:34.689Z,100706.99
2018-03-24T21:43:02.154Z,100708.53
2018-03-24T21:45:29.659Z,100710.55
2018-03-24T21:47:57.087Z,100708.74
2018-03-24T21:50:24.550Z,100706.30
2018-03-24T21:52:52.012Z,100705.66
2018-03-24T21:55:19.565Z,100705.81
2018-03-24T21:57:48.047Z,100704.92
2018-03-24T22:00:15.513Z,100704.73
2018-03-24T22:02:42.965Z,100702.70
2018-03-24T22:05:10.417Z,100704.01
2018-03-24T22:07:38.051Z,100714.55
2018-03-24T22:10:05.525Z,100703.40
2018-03-24T22:12:33.001Z,100703.75
2018-03-24T22:15:00.522Z,100705.27
2018-03-24T22:17:28.047Z,100704.08
2018-03-24T22:19:55.545Z,100701.63
2018-03-24T22:22:23.066Z,100704.52
2018-03-24T22:24:50.513Z,100705.73
2018-03-24T22:27:17.972Z,100706.20
2018-03-24T22:29:45.437Z,100709.66
2018-03-24T22:32:12.916Z,100709.70
2018-03-24T22:34:40.366Z,100713.11
2018-03-24T22:37:07.827Z,100712.45
2018-03-24T22:39:35.293Z,100713.80
2018-03-24T22:42:02.755Z,100713.40
2018-03-24T22:44:30.223Z,100712.08
2018-03-24T22:46:57.699Z,100710.12
2018-03-24T22:49:25.163Z,100710.98
2018-03-24T22:51:53.647Z,100708.86
2018-03-24T22:54:21.106Z,100701.13
2018-03-24T22:56:48.577Z,100704.17
2018-03-24T22:59:16.035Z,100700.41
2018-03-24T23:01:43.513Z,100703.14
2018-03-24T23:04:10.957Z,100702.19
2018-03-24T23:06:38.422Z,100698.66
2018-03-24T23:09:05.876Z,100693.95
2018-03-24T23:11:33.363Z,100695.52
2018-03-24T23:14:00.810Z,100689.73
2018-03-24T23:16:29.268Z,100695.92
2018-03-24T23:18:56.751Z,100689.27
2018-03-24T23:21:24.266Z,100683.00
2018-03-24T23:23:51.723Z,100690.81
2018-03-24T23:26:19.230Z,100691.64
2018-03-24T23:28:46.716Z,100692.92
2018-03-24T23:31:14.196Z,100696.09
2018-03-24T23:33:41.665Z,100689.77
2018-03-24T23:36:10.057Z,100689.92
2018-03-24T23:38:37.514Z,100692.77
2018-03-24T23:41:05.016Z,100694.25
2018-03-24T23:43:32.462Z,100693.69
2018-03-24T23:46:00.010Z,100696.53
2018-03-24T23:48:27.465Z,100688.97
2018-03-24T23:50:54.951Z,100695.22
2018-03-24T23:53:22.412Z,100698.09
2018-03-24T23:55:49.917Z,100700.48
2018-03-24T23:58:17.364Z,100704.89
